createdAt,value
2023-01-09T00:04:00.776Z,0.40
2023-01-09T00:08:52.434Z,0.50
2023-01-09T00:13:44.380Z,0.95
2023-01-09T00:18:37.461Z,0.98
2023-01-09T00:23:29.190Z,0.60
2023-01-09T00:28:20.889Z,0.68
2023-01-09T00:33:13.175Z,0.75
2023-01-09T00:38:04.960Z,0.60
2023-01-09T00:42:57.908Z,0.98
2023-01-09T00:47:52.892Z,0.40
2023-01-09T00:52:47.103Z,0.70
2023-01-09T00:57:39.127Z,0.30
2023-01-09T01:02:31.029Z,0.35
2023-01-09T01:07:43.341Z,0.30
2023-01-09T01:12:35.053Z,0.30
2023-01-09T01:17:26.697Z,0.30
2023-01-09T01:22:18.506Z,0.20
2023-01-09T01:27:10.455Z,0.30
2023-01-09T01:32:02.116Z,0.20
2023-01-09T01:36:54.046Z,0.20
2023-01-09T01:41:45.677Z,0.30
2023-01-09T01:46:37.361Z,0.30
2023-01-09T01:51:32.012Z,0.50
2023-01-09T01:56:30.560Z,0.30
2023-01-09T02:01:24.770Z,0.38
2023-01-09T02:06:16.641Z,1.08
2023-01-09T02:11:09.007Z,0.65
2023-01-09T02:16:03.604Z,0.40
2023-01-09T02:21:00.720Z,0.40
2023-01-09T02:26:13.476Z,0.43
2023-01-09T02:31:15.502Z,0.40
2023-01-09T02:36:29.145Z,0.30
2023-01-09T02:41:53.075Z,0.30
2023-01-09T02:46:44.870Z,1.15
2023-01-09T02:51:36.642Z,0.60
2023-01-09T02:56:37.350Z,0.30
2023-01-09T03:01:52.416Z,0.20
2023-01-09T03:06:54.976Z,0.40
2023-01-09T03:12:01.126Z,0.35
2023-01-09T03:17:02.637Z,0.30
2023-01-09T03:21:56.395Z,0.22
2023-01-09T03:26:48.214Z,0.30
2023-01-09T03:31:39.970Z,0.30
2023-01-09T03:36:31.716Z,0.40
2023-01-09T03:41:23.478Z,0.60
2023-01-09T03:46:18.075Z,0.40
2023-01-09T03:51:10.320Z,0.22
2023-01-09T03:56:01.976Z,0.30
2023-01-09T04:00:59.835Z,0.30
2023-01-09T04:05:51.698Z,0.20
2023-01-09T04:10:47.672Z,0.47
2023-01-09T04:15:39.468Z,0.80
2023-01-09T04:20:32.052Z,0.40
2023-01-09T04:25:23.755Z,0.30
2023-01-09T04:30:15.462Z,0.35
2023-01-09T04:35:07.917Z,0.28
2023-01-09T04:39:59.707Z,0.40
2023-01-09T04:44:54.228Z,0.35
2023-01-09T04:49:45.898Z,1.40
2023-01-09T04:54:39.547Z,0.40
2023-01-09T04:59:31.323Z,0.20
2023-01-09T05:04:23.103Z,0.20
2023-01-09T05:09:14.756Z,0.30
2023-01-09T05:14:06.438Z,0.20
2023-01-09T05:18:58.387Z,0.75
2023-01-09T05:23:50.352Z,1.35
2023-01-09T05:28:42.097Z,0.35
2023-01-09T05:33:33.814Z,1.20
2023-01-09T05:38:25.618Z,0.47
2023-01-09T05:43:17.411Z,0.30
2023-01-09T05:48:09.086Z,0.32
2023-01-09T05:53:00.783Z,0.40
2023-01-09T05:57:52.437Z,0.50
2023-01-09T06:02:44.169Z,0.22
2023-01-09T06:07:39.361Z,0.30
2023-01-09T06:12:31.147Z,0.45
2023-01-09T06:17:22.883Z,0.20
2023-01-09T06:22:14.529Z,0.22
2023-01-09T06:27:06.813Z,0.20
2023-01-09T06:31:58.623Z,0.65
2023-01-09T06:36:50.234Z,0.20
2023-01-09T06:41:41.983Z,0.20
2023-01-09T06:46:33.662Z,0.28
2023-01-09T06:51:25.446Z,0.30
2023-01-09T06:56:17.153Z,0.10
2023-01-09T07:01:09.410Z,0.20
2023-01-09T07:06:01.139Z,0.30
2023-01-09T07:10:52.852Z,0.20
2023-01-09T07:15:44.895Z,0.20
2023-01-09T07:20:39.816Z,0.10
2023-01-09T07:25:31.503Z,0.28
2023-01-09T07:30:23.385Z,0.10
2023-01-09T07:35:15.199Z,0.10
2023-01-09T07:40:07.687Z,0.17
2023-01-09T07:44:59.379Z,0.10
2023-01-09T07:49:51.103Z,0.10
2023-01-09T07:54:43.000Z,0.10
2023-01-09T07:59:34.733Z,0.10
2023-01-09T08:04:26.431Z,0.15
2023-01-09T08:09:18.827Z,0.03
2023-01-09T08:14:10.431Z,0.10
2023-01-09T08:19:02.077Z,0.10
2023-01-09T08:23:53.808Z,0.20
2023-01-09T08:28:46.264Z,0.10
2023-01-09T08:33:40.408Z,0.28
2023-01-09T08:38:32.274Z,0.20
2023-01-09T08:43:42.577Z,0.20
2023-01-09T08:48:34.289Z,0.20
2023-01-09T08:53:26.025Z,0.20
2023-01-09T08:58:17.791Z,0.30
2023-01-09T09:03:11.829Z,0.13
2023-01-09T09:08:04.329Z,0.22
2023-01-09T09:12:58.350Z,0.80
2023-01-09T09:18:04.358Z,0.20
2023-01-09T09:22:56.217Z,0.40
2023-01-09T09:27:48.070Z,0.28
2023-01-09T09:32:40.552Z,0.30
2023-01-09T09:37:32.564Z,0.28
2023-01-09T09:42:48.411Z,0.30
2023-01-09T09:47:45.883Z,0.25
2023-01-09T09:52:59.910Z,0.30
2023-01-09T09:57:52.337Z,0.52
2023-01-09T10:03:06.717Z,0.20
2023-01-09T10:08:15.781Z,0.20
2023-01-09T10:13:27.770Z,0.30
2023-01-09T10:18:42.823Z,0.30
2023-01-09T10:23:54.620Z,0.32
2023-01-09T10:29:38.724Z,0.20
2023-01-09T10:34:46.972Z,0.50
2023-01-09T10:39:44.137Z,0.30
2023-01-09T10:45:03.449Z,0.40
2023-01-09T10:49:56.921Z,0.20
2023-01-09T10:54:55.528Z,0.30
2023-01-09T10:59:47.212Z,0.35
2023-01-09T11:04:40.314Z,0.30
2023-01-09T11:09:55.296Z,0.40
2023-01-09T11:14:47.007Z,0.30
2023-01-09T11:19:38.893Z,0.40
2023-01-09T11:24:31.817Z,0.30
2023-01-09T11:29:26.638Z,0.50
2023-01-09T11:34:21.098Z,0.52
2023-01-09T11:39:25.495Z,0.70
2023-01-09T11:44:17.336Z,0.68
2023-01-09T11:49:15.329Z,0.30
2023-01-09T11:54:16.368Z,0.98
2023-01-09T11:59:21.334Z,0.43
2023-01-09T12:04:25.397Z,0.63
2023-01-09T12:09:28.296Z,0.40
2023-01-09T12:14:19.875Z,0.50
2023-01-09T12:19:23.703Z,0.47
2023-01-09T12:24:24.352Z,0.40
2023-01-09T12:29:19.038Z,0.60
2023-01-09T12:34:28.887Z,0.20
2023-01-09T12:39:54.478Z,0.40
2023-01-09T12:45:07.341Z,0.20
2023-01-09T12:50:07.767Z,0.55
2023-01-09T12:55:30.349Z,0.38
2023-01-09T13:00:22.048Z,0.50
2023-01-09T13:05:24.505Z,0.35
2023-01-09T13:10:40.945Z,0.50
2023-01-09T13:15:40.116Z,1.17
2023-01-09T13:21:07.265Z,0.50
2023-01-09T13:26:04.411Z,0.50
2023-01-09T13:31:08.830Z,0.47
2023-01-09T13:36:03.483Z,0.40
2023-01-09T13:41:35.662Z,0.28
2023-01-09T13:46:45.578Z,0.40
2023-01-09T13:51:58.345Z,0.35
2023-01-09T13:57:17.880Z,0.40
2023-01-09T14:02:35.368Z,0.43
2023-01-09T14:07:33.050Z,0.32
2023-01-09T14:12:26.547Z,0.40
2023-01-09T14:17:34.706Z,0.30
2023-01-09T14:22:42.344Z,0.63
2023-01-09T14:27:54.885Z,0.30
2023-01-09T14:32:57.866Z,0.40
2023-01-09T14:38:06.510Z,0.63
2023-01-09T14:43:05.109Z,0.30
2023-01-09T14:48:01.768Z,0.30
2023-01-09T14:52:57.896Z,0.40
2023-01-09T14:57:54.693Z,0.25
2023-01-09T15:02:47.455Z,0.43
2023-01-09T15:08:05.482Z,0.70
2023-01-09T15:13:00.751Z,0.40
2023-01-09T15:18:01.749Z,0.50
2023-01-09T15:22:54.918Z,0.30
2023-01-09T15:28:00.491Z,0.70
2023-01-09T15:32:52.807Z,0.40
2023-01-09T15:37:45.051Z,0.40
2023-01-09T15:42:58.201Z,0.50
2023-01-09T15:47:50.244Z,0.50
2023-01-09T15:52:42.507Z,0.30
2023-01-09T15:57:35.601Z,0.45
2023-01-09T16:02:45.934Z,1.23
2023-01-09T16:07:53.054Z,3.13
2023-01-09T16:12:44.707Z,2.20
2023-01-09T16:17:36.579Z,2.38
2023-01-09T16:22:33.304Z,0.80
2023-01-09T16:27:28.819Z,0.57
2023-01-09T16:32:32.939Z,0.60
2023-01-09T16:37:25.721Z,0.40
2023-01-09T16:42:35.931Z,0.68
2023-01-09T16:47:27.610Z,1.30
2023-01-09T16:52:19.331Z,0.55
2023-01-09T16:57:17.991Z,1.27
2023-01-09T17:02:18.096Z,0.73
2023-01-09T17:07:14.442Z,0.90
2023-01-09T17:12:06.484Z,0.60
2023-01-09T17:16:58.585Z,0.50
2023-01-09T17:21:50.419Z,0.80
2023-01-09T17:27:09.592Z,1.23
2023-01-09T17:32:01.404Z,1.08
2023-01-09T17:36:55.649Z,0.90
2023-01-09T17:41:47.399Z,0.93
2023-01-09T17:46:42.025Z,1.88
2023-01-09T17:51:33.790Z,1.30
2023-01-09T17:56:30.664Z,1.23
2023-01-09T18:01:22.533Z,1.10
2023-01-09T18:06:15.898Z,1.10
2023-01-09T18:11:10.925Z,0.70
2023-01-09T18:16:02.639Z,0.70
2023-01-09T18:20:54.449Z,0.80
2023-01-09T18:25:46.470Z,1.70
2023-01-09T18:30:38.331Z,0.75
2023-01-09T18:35:30.922Z,0.93
2023-01-09T18:40:22.756Z,1.42
2023-01-09T18:45:14.509Z,1.00
2023-01-09T18:50:06.639Z,1.50
2023-01-09T18:54:58.245Z,0.93
2023-01-09T18:59:49.996Z,1.70
2023-01-09T19:04:41.743Z,1.00
2023-01-09T19:09:33.607Z,1.35
2023-01-09T19:14:25.222Z,0.80
2023-01-09T19:19:17.327Z,0.70
2023-01-09T19:24:09.073Z,1.40
2023-01-09T19:29:01.071Z,1.10
2023-01-09T19:33:53.246Z,2.47
2023-01-09T19:38:45.108Z,1.67
2023-01-09T19:43:37.453Z,1.90
2023-01-09T19:48:30.647Z,1.00
2023-01-09T19:53:22.296Z,1.98
2023-01-09T19:58:13.988Z,1.38
2023-01-09T20:03:05.690Z,2.00
2023-01-09T20:07:57.655Z,1.20
2023-01-09T20:12:49.608Z,1.17
2023-01-09T20:17:42.260Z,1.70
2023-01-09T20:22:34.381Z,1.05
2023-01-09T20:27:26.107Z,1.48
2023-01-09T20:32:18.803Z,1.10
2023-01-09T20:37:11.134Z,1.25
2023-01-09T20:42:03.036Z,1.02
2023-01-09T20:46:54.779Z,1.27
2023-01-09T20:51:52.047Z,1.15
2023-01-09T20:56:44.060Z,1.47
2023-01-09T21:01:35.850Z,2.75
2023-01-09T21:06:28.721Z,0.70
2023-01-09T21:11:21.933Z,0.90
2023-01-09T21:16:15.999Z,0.70
2023-01-09T21:21:10.827Z,0.50
2023-01-09T21:26:08.991Z,1.10
2023-01-09T21:35:57.071Z,0.85
2023-01-09T21:40:50.876Z,0.55
2023-01-09T21:46:01.271Z,0.73
2023-01-09T21:50:52.971Z,0.90
2023-01-09T21:55:44.828Z,0.50
2023-01-09T22:00:36.478Z,0.70
2023-01-09T22:05:28.185Z,0.60
2023-01-09T22:10:19.865Z,0.75
2023-01-09T22:15:11.605Z,0.57
2023-01-09T22:20:03.460Z,0.50
2023-01-09T22:24:55.234Z,0.30
2023-01-09T22:29:46.943Z,0.50
2023-01-09T22:34:38.822Z,0.50
2023-01-09T22:39:30.565Z,0.40
2023-01-09T22:44:22.377Z,0.40
2023-01-09T22:49:14.272Z,0.60
2023-01-09T22:54:06.387Z,0.43
2023-01-09T22:58:59.651Z,0.50
2023-01-09T23:03:51.432Z,0.50
2023-01-09T23:08:43.449Z,0.90
2023-01-09T23:13:35.746Z,0.60
2023-01-09T23:18:27.847Z,0.75
2023-01-09T23:23:21.115Z,0.80
2023-01-09T23:28:12.782Z,0.55
2023-01-09T23:33:04.427Z,0.60
2023-01-09T23:37:55.999Z,0.80
2023-01-09T23:43:06.230Z,0.70
2023-01-09T23:47:57.884Z,0.80
2023-01-09T23:52:49.673Z,1.40
2023-01-09T23:57:41.301Z,0.70
